createdAt,value
2018-12-30T00:47:56.199Z,7.07
2018-12-30T00:50:37.492Z,4.93
2018-12-30T00:53:18.170Z,6.30
2018-12-30T00:55:58.543Z,3.73
2018-12-30T00:58:39.737Z,5.57
2018-12-30T01:01:20.520Z,7.57
2018-12-30T01:04:01.558Z,6.23
2018-12-30T01:06:43.110Z,7.77
2018-12-30T01:09:22.226Z,7.87
2018-12-30T01:12:10.758Z,5.40
2018-12-30T01:14:59.221Z,7.03
2018-12-30T01:17:47.477Z,7.37
2018-12-30T01:20:37.374Z,5.70
2018-12-30T01:23:18.767Z,8.23
2018-12-30T01:25:59.584Z,5.83
2018-12-30T01:28:40.599Z,6.70
2018-12-30T01:31:21.681Z,6.50
2018-12-30T01:34:02.637Z,5.87
2018-12-30T01:36:31.237Z,6.43
2018-12-30T01:39:19.936Z,5.90
2018-12-30T01:41:49.073Z,6.63
2018-12-30T01:44:17.962Z,4.83
2018-12-30T01:46:46.868Z,4.80
2018-12-30T01:49:15.527Z,6.43
2018-12-30T01:51:44.615Z,6.13
2018-12-30T01:54:13.451Z,4.20
2018-12-30T01:56:42.047Z,4.90
2018-12-30T01:59:10.615Z,8.40
2018-12-30T02:01:39.274Z,7.57
2018-12-30T02:04:07.851Z,10.93
2018-12-30T02:06:36.457Z,6.23
2018-12-30T02:09:06.696Z,5.37
2018-12-30T02:11:35.280Z,6.10
2018-12-30T02:14:03.939Z,4.33
2018-12-30T02:16:32.526Z,6.90
2018-12-30T02:19:20.662Z,13.87
2018-12-30T02:22:08.800Z,8.40
2018-12-30T02:24:56.982Z,5.93
2018-12-30T02:27:44.951Z,7.23
2018-12-30T02:30:13.825Z,7.50
2018-12-30T18:26:13.074Z,4.43
2018-12-30T18:28:42.170Z,2.60
2018-12-30T18:31:10.776Z,1.63
2018-12-30T18:33:39.919Z,2.60
2018-12-30T20:44:29.698Z,3.23
2018-12-30T20:46:58.294Z,2.10
2018-12-30T20:49:26.932Z,2.10
2018-12-30T20:51:55.775Z,1.67
2018-12-30T20:54:25.819Z,1.60
2018-12-30T20:57:14.018Z,4.90
2018-12-30T21:03:11.114Z,5.90
2018-12-30T21:15:44.287Z,2.37
2018-12-30T21:18:13.218Z,3.00
2018-12-30T21:20:41.847Z,1.80
2018-12-30T21:23:10.699Z,2.37
2018-12-30T21:25:39.702Z,2.40
2018-12-30T21:28:08.535Z,2.13
2018-12-30T21:40:25.565Z,2.90
2018-12-30T21:44:00.358Z,4.00
2018-12-30T21:45:43.996Z,2.83
2018-12-30T21:48:12.852Z,2.40
2018-12-30T21:50:41.467Z,2.80
2018-12-30T21:53:10.407Z,3.20
2018-12-30T21:55:39.532Z,4.07
2018-12-30T21:58:08.440Z,2.97
2018-12-30T22:00:37.414Z,2.80
2018-12-30T22:29:04.893Z,2.40
2018-12-30T22:31:52.818Z,2.00
2018-12-30T22:34:40.966Z,4.73
2018-12-30T22:37:28.880Z,2.23
2018-12-30T22:40:16.763Z,2.47
2018-12-30T22:43:04.998Z,2.10
2018-12-30T22:48:46.783Z,2.43
2018-12-30T22:51:35.004Z,4.33
2018-12-30T22:54:22.890Z,6.97
2018-12-30T22:57:11.410Z,2.77
2018-12-30T22:59:59.361Z,5.00
2018-12-30T23:02:47.795Z,2.47
2018-12-30T23:05:56.482Z,3.90
2018-12-30T23:08:44.358Z,2.07
2018-12-30T23:11:32.527Z,4.13
2018-12-30T23:14:13.522Z,3.07
2018-12-30T23:16:54.095Z,2.57
2018-12-30T23:19:34.980Z,2.20
2018-12-30T23:22:16.089Z,2.23
2018-12-30T23:24:56.969Z,2.80
2018-12-30T23:27:37.792Z,2.50
2018-12-30T23:30:18.830Z,2.53
2018-12-30T23:32:59.723Z,5.03
2018-12-30T23:35:28.695Z,2.67
2018-12-30T23:38:16.608Z,2.43
2018-12-30T23:44:12.349Z,4.87
2018-12-30T23:47:00.494Z,5.63
2018-12-30T23:49:41.349Z,2.60
2018-12-30T23:52:20.652Z,3.37
2018-12-30T23:55:08.789Z,3.23
2018-12-30T23:57:56.990Z,2.30
